createdAt,value
2023-02-26T00:03:05.182Z,12.73
2023-02-26T00:08:08.378Z,12.91
2023-02-26T00:13:12.182Z,12.84
2023-02-26T00:18:16.868Z,13.00
2023-02-26T00:23:20.413Z,12.21
2023-02-26T00:28:23.921Z,10.87
2023-02-26T00:33:27.877Z,10.37
2023-02-26T00:38:35.073Z,9.81
2023-02-26T00:43:38.826Z,9.67
2023-02-26T00:49:03.987Z,9.79
2023-02-26T00:54:26.571Z,9.50
2023-02-26T00:59:29.525Z,9.34
2023-02-26T01:04:32.849Z,9.10
2023-02-26T01:09:38.159Z,9.02
2023-02-26T01:14:41.388Z,8.70
2023-02-26T01:19:51.042Z,8.53
2023-02-26T01:25:06.126Z,8.38
2023-02-26T01:30:10.472Z,8.32
2023-02-26T01:35:44.154Z,8.13
2023-02-26T01:41:12.211Z,7.82
2023-02-26T01:46:24.705Z,7.64
2023-02-26T01:51:53.383Z,7.51
2023-02-26T01:57:13.895Z,7.37
2023-02-26T02:02:22.515Z,7.34
2023-02-26T02:07:25.678Z,7.21
2023-02-26T02:12:58.126Z,7.28
2023-02-26T02:18:33.431Z,7.28
2023-02-26T02:23:49.451Z,7.21
2023-02-26T02:29:26.573Z,7.10
2023-02-26T02:34:32.832Z,7.10
2023-02-26T02:39:56.043Z,7.06
2023-02-26T02:45:07.629Z,7.04
2023-02-26T02:50:36.001Z,6.96
2023-02-26T02:55:47.105Z,6.87
2023-02-26T03:00:54.936Z,6.80
2023-02-26T03:05:58.176Z,6.83
2023-02-26T03:11:01.441Z,6.78
2023-02-26T03:16:41.909Z,6.80
2023-02-26T03:21:57.796Z,6.69
2023-02-26T03:27:50.188Z,6.78
2023-02-26T03:33:04.004Z,6.80
2023-02-26T03:38:12.878Z,6.59
2023-02-26T03:43:31.718Z,6.93
2023-02-26T03:48:37.300Z,6.78
2023-02-26T03:53:56.597Z,6.86
2023-02-26T03:59:03.274Z,6.90
2023-02-26T04:04:42.689Z,6.78
2023-02-26T04:09:50.936Z,6.69
2023-02-26T04:14:59.612Z,6.64
2023-02-26T04:20:02.857Z,6.63
2023-02-26T04:25:06.675Z,6.70
2023-02-26T04:30:10.874Z,6.87
2023-02-26T04:35:15.223Z,6.88
2023-02-26T04:40:19.831Z,6.79
2023-02-26T04:45:23.394Z,6.80
2023-02-26T04:50:27.435Z,6.83
2023-02-26T04:55:30.549Z,6.80
2023-02-26T05:00:34.033Z,6.88
2023-02-26T05:05:37.905Z,6.73
2023-02-26T05:10:41.052Z,6.69
2023-02-26T05:15:44.594Z,6.72
2023-02-26T05:20:55.980Z,7.09
2023-02-26T05:25:59.649Z,7.06
2023-02-26T05:31:03.600Z,7.06
2023-02-26T05:36:07.623Z,7.11
2023-02-26T05:41:10.935Z,6.97
2023-02-26T05:46:14.671Z,7.10
2023-02-26T05:51:17.660Z,7.05
2023-02-26T05:56:21.621Z,7.63
2023-02-26T06:01:24.991Z,7.57
2023-02-26T06:06:28.512Z,7.43
2023-02-26T06:11:34.081Z,7.51
2023-02-26T06:16:37.281Z,7.69
2023-02-26T06:21:40.460Z,7.85
2023-02-26T06:26:43.464Z,7.97
2023-02-26T06:31:47.253Z,8.31
2023-02-26T06:36:50.674Z,8.62
2023-02-26T06:41:54.161Z,8.78
2023-02-26T06:46:57.219Z,8.92
2023-02-26T06:52:00.563Z,9.03
2023-02-26T06:57:03.914Z,9.47
2023-02-26T07:02:07.017Z,9.92
2023-02-26T07:07:11.018Z,10.17
2023-02-26T07:12:14.804Z,10.39
2023-02-26T07:17:21.586Z,10.87
2023-02-26T07:22:25.251Z,11.47
2023-02-26T07:27:30.383Z,11.51
2023-02-26T07:32:34.183Z,12.02
2023-02-26T07:37:37.745Z,13.04
2023-02-26T07:42:41.241Z,13.91
2023-02-26T07:47:45.211Z,14.96
2023-02-26T07:52:49.077Z,14.64
2023-02-26T07:57:52.243Z,14.74
2023-02-26T08:02:55.725Z,15.26
2023-02-26T08:07:59.197Z,15.82
2023-02-26T08:13:03.102Z,15.69
2023-02-26T08:18:06.874Z,14.71
2023-02-26T08:23:09.914Z,13.54
2023-02-26T08:28:14.005Z,13.84
2023-02-26T08:33:17.097Z,14.06
2023-02-26T08:38:21.646Z,15.11
2023-02-26T08:43:25.978Z,15.08
2023-02-26T08:48:29.242Z,14.39
2023-02-26T08:53:33.012Z,13.49
2023-02-26T08:58:36.668Z,13.26
2023-02-26T09:03:40.124Z,12.99
2023-02-26T09:08:43.431Z,12.50
2023-02-26T09:13:46.404Z,12.36
2023-02-26T09:18:50.550Z,12.49
2023-02-26T09:23:53.663Z,12.83
2023-02-26T09:28:57.550Z,12.86
2023-02-26T09:34:00.928Z,13.14
2023-02-26T09:39:04.833Z,12.96
2023-02-26T09:44:13.661Z,12.98
2023-02-26T09:49:23.750Z,13.07
2023-02-26T09:54:32.357Z,12.87
2023-02-26T09:59:35.402Z,12.51
2023-02-26T10:05:05.194Z,12.68
2023-02-26T10:10:18.778Z,12.19
2023-02-26T10:15:22.913Z,12.36
2023-02-26T10:20:37.174Z,12.68
2023-02-26T10:26:13.286Z,12.76
2023-02-26T10:31:35.857Z,12.94
2023-02-26T10:37:11.449Z,13.07
2023-02-26T10:42:34.670Z,13.73
2023-02-26T10:48:06.267Z,13.92
2023-02-26T10:53:15.323Z,13.95
2023-02-26T10:58:24.226Z,13.97
2023-02-26T11:03:39.766Z,14.03
2023-02-26T11:08:46.466Z,14.03
2023-02-26T11:13:49.745Z,13.93
2023-02-26T11:18:58.835Z,13.76
2023-02-26T11:24:28.085Z,13.33
2023-02-26T11:29:40.461Z,13.47
2023-02-26T11:34:55.519Z,13.38
2023-02-26T11:40:14.298Z,13.01
2023-02-26T11:45:20.396Z,12.89
2023-02-26T11:50:24.200Z,13.04
2023-02-26T11:55:34.857Z,12.78
2023-02-26T12:00:40.147Z,12.28
2023-02-26T12:05:43.745Z,12.45
2023-02-26T12:11:17.802Z,12.26
2023-02-26T12:16:34.322Z,12.38
2023-02-26T12:21:43.572Z,12.42
2023-02-26T12:27:05.027Z,12.17
2023-02-26T12:32:27.741Z,12.26
2023-02-26T12:38:08.498Z,12.58
2023-02-26T12:43:44.343Z,12.59
2023-02-26T12:49:04.642Z,12.61
2023-02-26T12:54:12.437Z,12.95
2023-02-26T12:59:18.573Z,13.56
2023-02-26T13:04:42.225Z,13.51
2023-02-26T13:10:04.140Z,13.46
2023-02-26T13:15:08.141Z,13.53
2023-02-26T13:20:23.413Z,13.56
2023-02-26T13:25:49.052Z,13.53
2023-02-26T13:30:56.466Z,13.18
2023-02-26T13:36:02.017Z,13.06
2023-02-26T13:41:27.613Z,12.91
2023-02-26T13:46:40.373Z,12.76
2023-02-26T13:51:46.712Z,12.74
2023-02-26T13:56:54.476Z,12.51
2023-02-26T14:02:03.124Z,12.62
2023-02-26T14:07:16.638Z,12.50
2023-02-26T14:12:24.732Z,12.42
2023-02-26T14:17:52.878Z,12.38
2023-02-26T14:22:58.611Z,12.36
2023-02-26T14:28:30.723Z,12.16
2023-02-26T14:33:42.862Z,12.04
2023-02-26T14:38:48.921Z,12.22
2023-02-26T14:44:02.375Z,12.64
2023-02-26T14:49:23.976Z,12.68
2023-02-26T14:54:34.809Z,12.34
2023-02-26T14:59:39.350Z,12.39
2023-02-26T15:05:07.777Z,12.20
2023-02-26T15:10:36.490Z,12.17
2023-02-26T15:15:57.726Z,11.94
2023-02-26T15:21:36.084Z,11.90
2023-02-26T15:26:48.089Z,11.79
2023-02-26T15:32:01.707Z,11.78
2023-02-26T15:37:05.307Z,11.89
2023-02-26T15:42:11.110Z,11.57
2023-02-26T15:47:16.700Z,11.88
2023-02-26T15:52:25.887Z,11.92
2023-02-26T15:57:30.193Z,12.15
2023-02-26T16:02:33.544Z,12.22
2023-02-26T16:07:36.560Z,12.24
2023-02-26T16:12:44.052Z,11.94
2023-02-26T16:17:51.168Z,11.47
2023-02-26T16:23:03.188Z,11.06
2023-02-26T16:28:15.137Z,10.39
2023-02-26T16:33:21.626Z,9.98
2023-02-26T16:38:44.437Z,9.65
2023-02-26T16:43:50.719Z,9.36
2023-02-26T16:48:59.016Z,9.02
2023-02-26T16:54:07.828Z,8.66
2023-02-26T16:59:27.089Z,8.66
2023-02-26T17:04:35.015Z,8.44
2023-02-26T17:09:43.219Z,8.46
2023-02-26T17:14:53.567Z,8.23
2023-02-26T17:19:57.222Z,8.14
2023-02-26T17:25:01.117Z,8.03
2023-02-26T17:30:07.343Z,7.82
2023-02-26T17:35:24.790Z,7.70
2023-02-26T17:40:39.645Z,7.55
2023-02-26T17:45:44.779Z,7.66
2023-02-26T17:50:56.657Z,7.39
2023-02-26T17:56:00.705Z,7.31
2023-02-26T18:01:04.858Z,7.20
2023-02-26T18:06:08.317Z,7.11
2023-02-26T18:11:13.872Z,6.99
2023-02-26T18:16:21.834Z,7.19
2023-02-26T18:21:28.949Z,7.13
2023-02-26T18:26:49.338Z,7.42
2023-02-26T18:31:54.315Z,7.33
2023-02-26T18:36:58.341Z,7.29
2023-02-26T18:42:04.543Z,7.26
2023-02-26T18:47:11.737Z,7.24
2023-02-26T18:52:16.091Z,7.04
2023-02-26T18:57:19.198Z,7.15
2023-02-26T19:02:22.967Z,6.75
2023-02-26T19:07:26.561Z,6.65
2023-02-26T19:12:29.619Z,6.64
2023-02-26T19:17:33.597Z,6.58
2023-02-26T19:22:36.644Z,6.27
2023-02-26T19:27:40.716Z,6.54
2023-02-26T19:32:44.571Z,6.44
2023-02-26T19:37:49.016Z,6.25
2023-02-26T19:42:52.529Z,6.19
2023-02-26T19:47:55.527Z,6.32
2023-02-26T19:52:59.423Z,6.36
2023-02-26T19:58:02.860Z,6.45
2023-02-26T20:03:06.611Z,6.38
2023-02-26T20:08:10.089Z,6.37
2023-02-26T20:13:14.747Z,6.04
2023-02-26T20:18:18.055Z,6.32
2023-02-26T20:23:21.763Z,6.15
2023-02-26T20:28:26.014Z,6.20
2023-02-26T20:33:29.458Z,6.35
2023-02-26T20:38:34.124Z,6.27
2023-02-26T20:43:38.660Z,6.17
2023-02-26T20:48:43.276Z,6.43
2023-02-26T20:53:46.325Z,6.33
2023-02-26T20:58:50.382Z,6.41
2023-02-26T21:03:54.389Z,6.19
2023-02-26T21:08:57.399Z,6.01
2023-02-26T21:14:02.246Z,5.99
2023-02-26T21:19:05.256Z,5.99
2023-02-26T21:24:08.564Z,5.63
2023-02-26T21:29:11.538Z,5.69
2023-02-26T21:34:32.755Z,5.82
2023-02-26T21:39:38.477Z,6.00
2023-02-26T21:44:41.579Z,6.00
2023-02-26T21:49:44.747Z,6.22
2023-02-26T21:54:54.525Z,6.41
2023-02-26T22:00:02.057Z,6.65
2023-02-26T22:05:15.134Z,6.89
2023-02-26T22:10:18.651Z,6.97
2023-02-26T22:15:21.780Z,6.93
2023-02-26T22:20:24.924Z,6.59
2023-02-26T22:25:28.512Z,6.28
2023-02-26T22:30:31.608Z,6.12
2023-02-26T22:35:35.600Z,6.00
2023-02-26T22:40:38.828Z,5.96
2023-02-26T22:45:48.124Z,6.07
2023-02-26T22:50:51.798Z,5.97
2023-02-26T22:55:55.184Z,6.04
2023-02-26T23:01:06.635Z,6.08
2023-02-26T23:06:10.227Z,6.34
2023-02-26T23:11:13.432Z,6.37
2023-02-26T23:16:16.641Z,5.97
2023-02-26T23:21:19.997Z,6.01
2023-02-26T23:26:23.610Z,6.42
2023-02-26T23:31:27.352Z,6.94
2023-02-26T23:36:31.010Z,7.01
2023-02-26T23:41:34.003Z,7.19
2023-02-26T23:46:37.866Z,5.94
2023-02-26T23:51:41.304Z,5.03
2023-02-26T23:56:46.971Z,4.27
